createdAt,value
2022-12-31T00:01:51.363Z,12.40
2022-12-31T00:04:18.203Z,12.50
2022-12-31T00:06:45.990Z,12.40
2022-12-31T00:09:12.911Z,12.40
2022-12-31T00:11:39.878Z,12.40
2022-12-31T00:14:06.961Z,12.30
2022-12-31T00:16:37.057Z,12.20
2022-12-31T00:19:04.948Z,12.20
2022-12-31T00:21:33.830Z,12.30
2022-12-31T00:24:01.515Z,12.40
2022-12-31T00:26:30.300Z,12.30
2022-12-31T00:28:58.332Z,12.20
2022-12-31T00:31:28.168Z,12.10
2022-12-31T00:33:55.348Z,12.10
2022-12-31T00:36:24.882Z,12.00
2022-12-31T00:38:53.740Z,11.90
2022-12-31T00:41:22.632Z,12.00
2022-12-31T00:43:50.160Z,11.90
2022-12-31T00:46:17.883Z,11.90
2022-12-31T00:48:44.808Z,11.90
2022-12-31T00:51:14.637Z,11.80
2022-12-31T00:53:42.204Z,11.90
2022-12-31T00:56:13.057Z,11.80
2022-12-31T00:58:39.889Z,11.70
2022-12-31T01:01:19.926Z,11.80
2022-12-31T01:03:48.411Z,11.90
2022-12-31T01:06:16.078Z,11.80
2022-12-31T01:08:42.804Z,11.80
2022-12-31T01:11:24.549Z,11.70
2022-12-31T01:13:54.588Z,11.80
2022-12-31T01:16:31.571Z,11.70
2022-12-31T01:18:59.983Z,11.60
2022-12-31T01:21:27.206Z,11.60
2022-12-31T01:23:54.016Z,11.60
2022-12-31T01:26:21.220Z,11.60
2022-12-31T01:28:48.078Z,11.60
2022-12-31T01:31:18.130Z,11.60
2022-12-31T01:33:45.807Z,11.60
2022-12-31T01:36:21.850Z,11.60
2022-12-31T01:38:52.351Z,11.60
2022-12-31T01:41:23.524Z,11.70
2022-12-31T01:43:54.059Z,11.80
2022-12-31T01:46:44.865Z,11.70
2022-12-31T01:49:19.300Z,11.80
2022-12-31T01:51:51.333Z,11.80
2022-12-31T01:54:21.473Z,11.90
2022-12-31T01:56:50.122Z,11.90
2022-12-31T01:59:18.611Z,11.90
2022-12-31T02:01:48.315Z,11.90
2022-12-31T02:04:16.373Z,12.00
2022-12-31T02:07:05.603Z,12.10
2022-12-31T02:09:33.117Z,12.00
2022-12-31T02:12:00.018Z,12.00
2022-12-31T02:14:34.371Z,12.20
2022-12-31T02:17:29.398Z,12.20
2022-12-31T02:20:07.658Z,12.20
2022-12-31T02:22:58.916Z,12.30
2022-12-31T02:25:44.509Z,12.30
2022-12-31T02:28:43.221Z,12.30
2022-12-31T02:31:37.402Z,12.30
2022-12-31T02:34:07.052Z,12.30
2022-12-31T02:36:38.837Z,12.40
2022-12-31T02:39:07.495Z,12.40
2022-12-31T02:41:52.473Z,12.50
2022-12-31T02:44:29.890Z,12.50
2022-12-31T02:47:08.242Z,12.40
2022-12-31T02:49:53.548Z,12.60
2022-12-31T02:52:38.527Z,12.70
2022-12-31T02:55:43.177Z,12.70
2022-12-31T02:58:48.283Z,12.80
2022-12-31T03:01:59.163Z,12.90
2022-12-31T03:04:33.529Z,12.90
2022-12-31T03:07:06.766Z,12.90
2022-12-31T03:09:34.598Z,13.00
2022-12-31T03:12:20.749Z,13.00
2022-12-31T03:14:47.668Z,13.10
2022-12-31T03:17:14.651Z,13.10
2022-12-31T03:20:00.277Z,13.10
2022-12-31T03:22:29.989Z,13.20
2022-12-31T03:25:30.474Z,13.10
2022-12-31T03:27:57.305Z,13.20
2022-12-31T03:30:24.776Z,13.20
2022-12-31T03:32:51.722Z,13.30
2022-12-31T03:35:20.595Z,13.30
2022-12-31T03:37:48.076Z,13.40
2022-12-31T03:40:15.956Z,13.40
2022-12-31T03:42:42.680Z,13.40
2022-12-31T03:45:10.857Z,13.30
2022-12-31T03:47:38.038Z,13.20
2022-12-31T03:50:06.337Z,13.20
2022-12-31T03:52:33.232Z,13.30
2022-12-31T03:55:01.544Z,13.40
2022-12-31T03:57:28.654Z,13.40
2022-12-31T03:59:55.378Z,13.50
2022-12-31T04:02:28.264Z,13.40
2022-12-31T04:04:55.885Z,13.50
2022-12-31T04:07:22.656Z,13.50
2022-12-31T04:09:49.474Z,13.50
2022-12-31T04:12:16.215Z,13.50
2022-12-31T04:14:42.950Z,13.50
2022-12-31T04:17:09.651Z,13.40
2022-12-31T04:19:37.546Z,13.50
2022-12-31T04:22:05.143Z,13.50
2022-12-31T04:24:31.946Z,13.70
2022-12-31T04:27:07.111Z,13.60
2022-12-31T04:29:34.531Z,13.60
2022-12-31T04:32:01.631Z,13.70
2022-12-31T04:34:28.620Z,13.70
2022-12-31T04:36:55.329Z,13.60
2022-12-31T04:39:22.118Z,13.60
2022-12-31T04:41:48.923Z,13.50
2022-12-31T04:44:15.947Z,13.40
2022-12-31T04:46:42.657Z,13.40
2022-12-31T04:49:09.410Z,13.40
2022-12-31T04:51:36.724Z,13.30
2022-12-31T04:54:04.137Z,13.30
2022-12-31T04:56:32.040Z,13.30
2022-12-31T04:58:59.082Z,13.20
2022-12-31T05:01:26.522Z,13.20
2022-12-31T05:03:53.291Z,13.10
2022-12-31T05:06:22.552Z,13.10
2022-12-31T05:08:49.983Z,13.10
2022-12-31T05:11:17.723Z,13.10
2022-12-31T05:13:44.772Z,13.00
2022-12-31T05:16:11.587Z,13.00
2022-12-31T05:18:38.668Z,12.90
2022-12-31T05:21:08.068Z,13.00
2022-12-31T05:23:34.823Z,12.90
2022-12-31T05:26:01.888Z,12.90
2022-12-31T05:28:28.663Z,12.90
2022-12-31T05:30:55.732Z,12.80
2022-12-31T05:33:23.013Z,13.00
2022-12-31T05:35:49.813Z,12.90
2022-12-31T05:38:16.546Z,12.80
2022-12-31T05:40:43.265Z,12.80
2022-12-31T05:43:10.030Z,12.70
2022-12-31T05:45:37.136Z,12.70
2022-12-31T05:48:04.012Z,12.50
2022-12-31T05:50:30.726Z,12.40
2022-12-31T05:52:57.490Z,12.30
2022-12-31T05:55:24.245Z,12.20
2022-12-31T05:57:51.022Z,12.10
2022-12-31T06:00:17.832Z,12.10
2022-12-31T06:02:44.593Z,12.10
2022-12-31T06:05:12.226Z,12.00
2022-12-31T06:07:39.067Z,12.00
2022-12-31T06:10:06.346Z,11.90
2022-12-31T06:12:33.161Z,11.80
2022-12-31T06:14:59.904Z,11.80
2022-12-31T06:17:26.708Z,11.80
2022-12-31T06:19:53.386Z,11.80
2022-12-31T06:22:20.039Z,11.80
2022-12-31T06:24:46.738Z,11.90
2022-12-31T06:27:13.451Z,11.90
2022-12-31T06:29:40.367Z,11.80
2022-12-31T06:32:07.278Z,11.80
2022-12-31T06:34:34.030Z,11.80
2022-12-31T06:37:00.780Z,11.90
2022-12-31T06:39:27.692Z,11.90
2022-12-31T06:41:55.035Z,11.90
2022-12-31T06:44:22.594Z,11.90
2022-12-31T06:46:50.229Z,11.90
2022-12-31T06:49:17.014Z,11.90
2022-12-31T06:51:46.004Z,12.00
2022-12-31T06:54:13.551Z,12.00
2022-12-31T06:56:41.440Z,11.90
2022-12-31T06:59:29.227Z,11.90
2022-12-31T07:02:16.144Z,11.90
2022-12-31T07:05:02.294Z,12.00
2022-12-31T07:08:03.329Z,12.00
2022-12-31T07:10:48.600Z,12.00
2022-12-31T07:13:42.862Z,12.00
2022-12-31T07:16:34.112Z,11.90
2022-12-31T07:19:25.785Z,11.90
2022-12-31T07:21:54.758Z,12.00
2022-12-31T07:24:21.858Z,12.10
2022-12-31T07:27:07.434Z,12.20
2022-12-31T07:29:40.143Z,12.20
2022-12-31T07:32:29.119Z,12.30
2022-12-31T07:35:11.214Z,12.50
2022-12-31T07:37:55.422Z,12.60
2022-12-31T07:40:32.879Z,12.80
2022-12-31T07:43:15.780Z,12.70
2022-12-31T07:45:54.797Z,12.70
2022-12-31T07:48:25.208Z,12.80
2022-12-31T07:50:54.706Z,12.80
2022-12-31T07:53:23.062Z,12.90
2022-12-31T07:56:00.359Z,13.00
2022-12-31T07:58:43.588Z,13.00
2022-12-31T08:01:13.683Z,13.00
2022-12-31T08:04:07.856Z,13.00
2022-12-31T08:07:07.000Z,13.00
2022-12-31T08:09:47.154Z,13.00
2022-12-31T08:12:15.158Z,13.10
2022-12-31T08:14:46.871Z,13.20
2022-12-31T08:17:16.454Z,13.20
2022-12-31T08:19:43.988Z,13.10
2022-12-31T08:22:28.420Z,13.00
2022-12-31T08:25:14.404Z,13.00
2022-12-31T08:27:50.438Z,12.90
2022-12-31T08:30:21.129Z,13.00
2022-12-31T08:33:04.138Z,13.00
2022-12-31T08:35:43.655Z,13.00
2022-12-31T08:38:29.501Z,13.10
2022-12-31T08:41:14.287Z,13.40
2022-12-31T08:43:49.793Z,13.70
2022-12-31T08:46:29.378Z,13.70
2022-12-31T08:48:56.323Z,13.70
2022-12-31T08:51:25.693Z,13.70
2022-12-31T08:53:53.429Z,13.60
2022-12-31T08:56:27.549Z,13.60
2022-12-31T08:59:12.218Z,13.50
2022-12-31T09:01:54.378Z,13.50
2022-12-31T09:04:51.466Z,13.50
2022-12-31T09:07:26.098Z,13.60
2022-12-31T09:10:09.678Z,13.70
2022-12-31T09:12:46.229Z,13.80
2022-12-31T09:15:28.036Z,13.90
2022-12-31T09:17:55.087Z,14.10
2022-12-31T09:20:41.785Z,14.20
2022-12-31T09:23:10.105Z,14.20
2022-12-31T09:25:46.628Z,14.20
2022-12-31T09:28:31.124Z,14.10
2022-12-31T09:31:11.416Z,14.10
2022-12-31T09:33:48.479Z,14.00
2022-12-31T09:36:26.333Z,14.00
2022-12-31T09:39:03.139Z,14.20
2022-12-31T09:42:00.285Z,14.40
2022-12-31T09:45:00.756Z,14.60
2022-12-31T09:47:36.356Z,14.90
2022-12-31T09:50:24.769Z,15.10
2022-12-31T09:52:57.370Z,15.20
2022-12-31T09:55:32.889Z,15.40
2022-12-31T09:58:12.335Z,15.60
2022-12-31T10:00:53.337Z,15.80
2022-12-31T10:03:58.231Z,15.90
2022-12-31T10:06:33.624Z,16.00
2022-12-31T10:09:13.774Z,16.10
2022-12-31T10:12:13.289Z,16.20
2022-12-31T10:14:47.756Z,16.40
2022-12-31T10:17:29.824Z,16.50
2022-12-31T10:20:17.044Z,16.70
2022-12-31T10:23:08.540Z,16.80
2022-12-31T10:25:40.918Z,16.90
2022-12-31T10:28:15.840Z,16.90
2022-12-31T10:30:52.966Z,17.10
2022-12-31T10:33:43.123Z,17.10
2022-12-31T10:36:30.969Z,17.20
2022-12-31T10:39:15.370Z,17.40
2022-12-31T10:42:09.777Z,17.60
2022-12-31T10:45:25.902Z,17.80
2022-12-31T10:48:17.549Z,18.00
2022-12-31T10:51:02.801Z,18.10
2022-12-31T10:53:48.460Z,18.30
2022-12-31T10:56:33.276Z,18.40
2022-12-31T10:59:37.137Z,18.30
2022-12-31T11:02:09.473Z,18.40
2022-12-31T11:04:45.128Z,18.30
2022-12-31T11:07:29.332Z,18.30
2022-12-31T11:10:23.024Z,18.20
2022-12-31T11:13:10.884Z,18.10
2022-12-31T11:15:53.020Z,18.00
2022-12-31T11:18:30.018Z,17.90
2022-12-31T11:21:06.864Z,17.90
2022-12-31T11:24:17.521Z,18.00
2022-12-31T11:27:22.131Z,18.10
2022-12-31T11:30:00.663Z,18.10
2022-12-31T11:32:45.651Z,18.30
2022-12-31T11:35:41.368Z,18.40
2022-12-31T11:38:34.676Z,18.40
2022-12-31T11:41:30.999Z,18.50
2022-12-31T11:44:29.553Z,18.60
2022-12-31T11:47:02.087Z,18.70
2022-12-31T11:49:59.900Z,18.80
2022-12-31T11:53:11.134Z,18.80
2022-12-31T11:56:10.067Z,18.90
2022-12-31T11:58:36.955Z,18.90
2022-12-31T12:01:13.662Z,19.00
2022-12-31T12:03:43.690Z,19.00
2022-12-31T12:06:15.737Z,19.00
2022-12-31T12:08:44.034Z,19.00
2022-12-31T12:11:23.809Z,19.10
2022-12-31T12:13:50.612Z,19.10
2022-12-31T12:16:20.307Z,19.10
2022-12-31T12:19:00.912Z,19.20
2022-12-31T12:21:29.095Z,19.20
2022-12-31T12:24:25.100Z,19.30
2022-12-31T12:26:52.257Z,19.30
2022-12-31T12:29:22.320Z,19.30
2022-12-31T12:32:17.032Z,19.20
2022-12-31T12:34:49.408Z,19.20
2022-12-31T12:37:34.572Z,19.20
2022-12-31T12:40:34.161Z,19.20
2022-12-31T12:43:02.569Z,19.20
2022-12-31T12:45:51.774Z,19.00
2022-12-31T12:48:34.901Z,18.90
2022-12-31T12:51:06.433Z,18.50
2022-12-31T12:54:06.999Z,18.00
2022-12-31T12:56:39.108Z,17.70
2022-12-31T12:59:27.722Z,17.70
2022-12-31T13:02:31.740Z,17.60
2022-12-31T13:05:28.827Z,17.50
2022-12-31T13:08:14.396Z,17.40
2022-12-31T13:10:46.807Z,17.20
2022-12-31T13:13:43.128Z,17.10
2022-12-31T13:16:15.444Z,16.90
2022-12-31T13:19:02.072Z,16.70
2022-12-31T13:21:48.492Z,16.60
2022-12-31T13:24:39.387Z,16.60
2022-12-31T13:27:28.074Z,16.70
2022-12-31T13:29:58.996Z,16.70
2022-12-31T13:32:44.853Z,16.70
2022-12-31T13:35:33.546Z,16.50
2022-12-31T13:38:31.710Z,16.20
2022-12-31T13:41:03.583Z,16.00
2022-12-31T13:43:35.343Z,16.00
2022-12-31T13:46:14.239Z,16.00
2022-12-31T13:49:05.093Z,16.00
2022-12-31T13:51:42.848Z,16.00
2022-12-31T13:54:15.282Z,16.00
2022-12-31T13:56:45.357Z,16.00
2022-12-31T13:59:22.358Z,15.90
2022-12-31T14:02:04.606Z,15.90
2022-12-31T14:04:37.074Z,16.00
2022-12-31T14:07:21.369Z,16.10
2022-12-31T14:09:48.099Z,16.10
2022-12-31T14:12:27.133Z,16.10
2022-12-31T14:15:08.968Z,16.10
2022-12-31T14:17:36.391Z,16.10
2022-12-31T14:20:18.209Z,16.00
2022-12-31T14:23:05.528Z,15.90
2022-12-31T14:26:00.938Z,15.70
2022-12-31T14:28:43.041Z,15.70
2022-12-31T14:31:41.436Z,15.60
2022-12-31T14:34:40.127Z,15.70
2022-12-31T14:37:18.714Z,15.50
2022-12-31T14:40:10.619Z,15.50
2022-12-31T14:43:24.995Z,15.20
2022-12-31T14:46:00.890Z,15.10
2022-12-31T14:48:32.394Z,15.00
2022-12-31T14:51:03.170Z,14.80
2022-12-31T14:53:30.513Z,14.70
2022-12-31T14:55:58.370Z,14.40
2022-12-31T14:58:32.705Z,14.30
2022-12-31T15:01:03.309Z,14.10
2022-12-31T15:03:43.193Z,14.10
2022-12-31T15:06:17.495Z,14.10
2022-12-31T15:09:08.943Z,13.80
2022-12-31T15:11:57.617Z,13.70
2022-12-31T15:14:54.314Z,13.70
2022-12-31T15:17:44.351Z,13.50
2022-12-31T15:20:18.055Z,13.20
2022-12-31T15:22:55.106Z,13.20
2022-12-31T15:25:28.111Z,12.90
2022-12-31T15:27:57.657Z,12.50
2022-12-31T15:30:35.801Z,12.30
2022-12-31T15:33:07.267Z,12.20
2022-12-31T15:35:52.495Z,12.00
2022-12-31T15:38:34.624Z,11.80
2022-12-31T15:41:12.734Z,11.80
2022-12-31T15:44:09.367Z,11.80
2022-12-31T15:46:40.483Z,11.60
2022-12-31T15:49:16.478Z,11.70
2022-12-31T15:52:03.692Z,11.70
2022-12-31T15:54:38.381Z,11.60
2022-12-31T15:57:09.513Z,11.40
2022-12-31T15:59:38.170Z,11.20
2022-12-31T16:02:05.250Z,11.00
2022-12-31T16:04:39.320Z,10.90
2022-12-31T16:07:06.052Z,10.80
2022-12-31T16:09:35.809Z,10.90
2022-12-31T16:12:08.931Z,10.90
2022-12-31T16:14:49.257Z,10.80
2022-12-31T16:17:36.541Z,10.80
2022-12-31T16:20:23.211Z,10.70
2022-12-31T16:23:00.029Z,10.60
2022-12-31T16:25:31.662Z,10.40
2022-12-31T16:27:59.259Z,10.40
2022-12-31T16:30:32.029Z,10.40
2022-12-31T16:33:03.316Z,10.30
2022-12-31T16:35:32.895Z,10.30
2022-12-31T16:38:03.877Z,10.20
2022-12-31T16:40:30.969Z,10.20
2022-12-31T16:42:57.701Z,10.20
2022-12-31T16:45:36.108Z,10.10
2022-12-31T16:48:18.112Z,10.00
2022-12-31T16:50:48.186Z,10.00
2022-12-31T16:53:18.241Z,10.00
2022-12-31T16:55:55.463Z,10.00
2022-12-31T16:58:28.423Z,10.00
2022-12-31T17:01:08.961Z,9.80
2022-12-31T17:03:39.144Z,9.60
2022-12-31T17:06:06.082Z,9.60
2022-12-31T17:08:45.090Z,9.50
2022-12-31T17:11:24.001Z,9.60
2022-12-31T17:13:56.819Z,9.60
2022-12-31T17:16:24.701Z,9.50
2022-12-31T17:18:51.760Z,9.50
2022-12-31T17:21:19.332Z,9.60
2022-12-31T17:23:54.258Z,9.50
2022-12-31T17:26:27.586Z,9.60
2022-12-31T17:28:56.694Z,9.40
2022-12-31T17:31:34.321Z,9.40
2022-12-31T17:34:13.481Z,9.40
2022-12-31T17:37:25.161Z,9.40
2022-12-31T17:39:53.886Z,9.30
2022-12-31T17:42:30.435Z,9.20
2022-12-31T17:45:01.293Z,9.10
2022-12-31T17:47:40.156Z,9.10
2022-12-31T17:50:27.444Z,9.30
2022-12-31T17:53:11.640Z,9.30
2022-12-31T17:55:39.119Z,9.20
2022-12-31T17:58:06.942Z,9.40
2022-12-31T18:00:36.596Z,9.30
2022-12-31T18:03:03.469Z,9.30
2022-12-31T18:05:30.197Z,9.30
2022-12-31T18:07:56.924Z,9.30
2022-12-31T18:10:26.476Z,9.30
2022-12-31T18:12:53.520Z,9.30
2022-12-31T18:15:23.163Z,9.30
2022-12-31T18:17:50.140Z,9.40
2022-12-31T18:20:17.674Z,9.30
2022-12-31T18:22:45.659Z,9.30
2022-12-31T18:25:23.615Z,9.10
2022-12-31T18:27:52.715Z,9.40
2022-12-31T18:30:19.612Z,9.90
2022-12-31T18:32:47.032Z,10.20
2022-12-31T18:35:58.175Z,10.40
2022-12-31T18:38:14.433Z,10.50
2022-12-31T18:40:44.340Z,10.50
2022-12-31T18:43:16.666Z,10.40
2022-12-31T18:45:43.900Z,10.50
2022-12-31T18:48:10.713Z,10.50
2022-12-31T18:50:37.993Z,10.60
2022-12-31T18:53:04.835Z,10.60
2022-12-31T18:55:41.894Z,10.40
2022-12-31T18:58:09.744Z,10.20
2022-12-31T19:00:36.756Z,10.20
2022-12-31T19:03:05.420Z,10.10
2022-12-31T19:05:34.329Z,10.10
2022-12-31T19:08:01.079Z,10.10
2022-12-31T19:10:28.642Z,9.80
2022-12-31T19:12:55.507Z,9.70
2022-12-31T19:15:34.521Z,9.50
2022-12-31T19:18:02.669Z,9.40
2022-12-31T19:20:30.707Z,9.30
2022-12-31T19:22:58.188Z,9.30
2022-12-31T19:25:32.435Z,9.20
2022-12-31T19:27:59.427Z,9.30
2022-12-31T19:30:31.501Z,9.40
2022-12-31T19:32:58.247Z,9.40
2022-12-31T19:35:25.767Z,9.30
2022-12-31T19:37:54.180Z,9.20
2022-12-31T19:40:29.771Z,9.20
2022-12-31T19:42:57.551Z,9.20
2022-12-31T19:45:26.889Z,9.30
2022-12-31T19:47:54.705Z,9.30
2022-12-31T19:50:25.001Z,9.20
2022-12-31T19:52:54.367Z,9.10
2022-12-31T19:55:22.706Z,9.10
2022-12-31T19:57:49.488Z,9.00
2022-12-31T20:00:18.134Z,9.10
2022-12-31T20:02:47.104Z,9.10
2022-12-31T20:05:15.544Z,9.20
2022-12-31T20:07:42.444Z,9.20
2022-12-31T20:10:10.749Z,9.00
2022-12-31T20:12:43.968Z,8.90
2022-12-31T20:15:11.610Z,8.90
2022-12-31T20:17:38.343Z,8.80
2022-12-31T20:20:06.666Z,8.70
2022-12-31T20:22:33.857Z,8.70
2022-12-31T20:25:12.347Z,8.60
2022-12-31T20:27:39.067Z,8.50
2022-12-31T20:30:06.532Z,8.50
2022-12-31T20:32:33.853Z,8.50
2022-12-31T20:35:00.600Z,8.40
2022-12-31T20:37:27.362Z,8.50
2022-12-31T20:39:54.097Z,8.70
2022-12-31T20:42:20.782Z,8.50
2022-12-31T20:44:47.500Z,8.50
2022-12-31T20:47:14.232Z,8.60
2022-12-31T20:52:27.594Z,8.60
2022-12-31T20:54:54.281Z,8.60
2022-12-31T20:57:20.973Z,8.70
2022-12-31T20:59:47.661Z,8.80
2022-12-31T21:02:29.507Z,8.40
2022-12-31T21:05:02.455Z,8.00
2022-12-31T21:07:30.091Z,7.90
2022-12-31T21:09:56.770Z,8.30
2022-12-31T21:12:42.087Z,8.50
2022-12-31T21:15:09.632Z,8.60
2022-12-31T21:17:36.301Z,8.60
2022-12-31T21:20:03.892Z,8.70
2022-12-31T21:22:33.572Z,8.80
2022-12-31T21:25:03.765Z,8.80
2022-12-31T21:27:30.740Z,8.80
2022-12-31T21:32:44.300Z,8.90
2022-12-31T21:38:02.005Z,8.90
2022-12-31T21:40:29.916Z,8.80
2022-12-31T21:42:56.726Z,8.70
2022-12-31T21:45:23.462Z,8.70
2022-12-31T21:48:08.858Z,8.60
2022-12-31T21:50:35.658Z,8.60
2022-12-31T21:53:02.475Z,8.60
2022-12-31T21:55:48.032Z,8.50
2022-12-31T21:58:31.971Z,8.40
2022-12-31T22:01:18.234Z,8.40
2022-12-31T22:03:45.590Z,8.30
2022-12-31T22:06:23.258Z,8.30
2022-12-31T22:08:52.332Z,8.20
2022-12-31T22:11:21.073Z,8.20
2022-12-31T22:13:48.081Z,8.10
2022-12-31T22:16:14.936Z,8.10
2022-12-31T22:18:43.979Z,8.00
2022-12-31T22:21:20.513Z,7.90
2022-12-31T22:23:53.320Z,7.90
2022-12-31T22:26:23.439Z,8.00
2022-12-31T22:28:50.675Z,8.10
2022-12-31T22:31:20.057Z,8.00
2022-12-31T22:33:47.433Z,7.90
2022-12-31T22:36:17.707Z,7.90
2022-12-31T22:38:45.082Z,7.90
2022-12-31T22:41:14.699Z,7.90
2022-12-31T22:43:47.215Z,7.80
2022-12-31T22:46:18.178Z,7.70
2022-12-31T22:48:45.233Z,7.60
2022-12-31T22:51:13.836Z,7.70
2022-12-31T22:53:43.238Z,7.80
2022-12-31T22:56:12.205Z,7.80
2022-12-31T22:58:39.036Z,7.80
2022-12-31T23:01:24.053Z,7.80
2022-12-31T23:03:52.604Z,7.70
2022-12-31T23:06:20.303Z,7.60
2022-12-31T23:09:05.839Z,7.70
2022-12-31T23:11:34.329Z,7.70
2022-12-31T23:14:19.615Z,7.70
2022-12-31T23:17:30.757Z,7.80
2022-12-31T23:20:10.236Z,7.90
2022-12-31T23:22:55.586Z,7.90
2022-12-31T23:25:22.297Z,7.90
2022-12-31T23:27:48.999Z,7.90
2022-12-31T23:30:15.689Z,8.00
2022-12-31T23:32:42.400Z,8.20
2022-12-31T23:35:09.950Z,8.10
2022-12-31T23:37:36.929Z,8.10
2022-12-31T23:40:04.328Z,8.20
2022-12-31T23:42:31.019Z,8.10
2022-12-31T23:44:57.868Z,8.10
2022-12-31T23:47:24.578Z,8.00
2022-12-31T23:49:51.295Z,7.90
2022-12-31T23:52:17.965Z,8.10
2022-12-31T23:54:44.644Z,8.20
2022-12-31T23:57:11.408Z,8.20
2022-12-31T23:59:38.078Z,8.20
